Time;durP1;ratioP1;P1;durP2;ratioP2;P2;SDS_P1;SDS_P2;PMS_P1;PMS_P2;Temp;Humidity;BMP_temperature;BMP_pressure;BME280_temperature;BME280_humidity;BME280_pressure;Samples;Min_cycle;Max_cycle;Signal;HPM_P1;HPM_P2
2023/07/17 00:00:30;;;;;;;9.93;8.63;;;;;;;31.26;49.71;100110.81;5094072;28;20040;-73
2023/07/17 00:03:12;;;;;;;11.13;9.15;;;;;;;31.24;50.01;100099.19;5094519;28;20139;-73
2023/07/17 00:05:41;;;;;;;11.80;9.23;;;;;;;31.24;49.82;100112.13;5094458;28;20044;-74
2023/07/17 00:08:12;;;;;;;12.57;9.00;;;;;;;31.21;49.86;100099.69;5094876;28;20153;-72
2023/07/17 00:10:46;;;;;;;10.63;9.52;;;;;;;31.21;49.99;100104.34;5094997;28;20048;-73
2023/07/17 00:13:15;;;;;;;11.40;9.07;;;;;;;31.18;50.01;100111.13;5092929;28;20051;-74
2023/07/17 00:15:43;;;;;;;14.13;9.45;;;;;;;31.17;49.97;100109.41;5093252;28;20077;-73
2023/07/17 00:18:14;;;;;;;10.18;9.20;;;;;;;31.17;50.16;100114.94;5094294;28;20140;-74
2023/07/17 00:20:43;;;;;;;9.75;8.75;;;;;;;31.14;50.00;100112.66;5094169;28;20093;-73
2023/07/17 00:23:11;;;;;;;10.77;9.20;;;;;;;31.14;50.13;100126.41;5093908;28;20068;-72
2023/07/17 00:25:40;;;;;;;9.68;8.75;;;;;;;31.13;50.03;100121.16;5093916;28;20450;-73
2023/07/17 00:28:09;;;;;;;10.48;8.98;;;;;;;31.12;50.26;100116.72;5094263;28;20476;-72
2023/07/17 00:30:38;;;;;;;10.75;8.82;;;;;;;31.10;50.10;100119.69;5094012;28;20044;-73
2023/07/17 00:33:08;;;;;;;10.10;9.10;;;;;;;31.08;50.10;100119.09;5093945;28;20048;-72
2023/07/17 00:35:37;;;;;;;9.95;8.98;;;;;;;31.06;50.21;100115.69;5094828;28;20048;-73
2023/07/17 00:38:06;;;;;;;10.23;9.23;;;;;;;31.05;50.40;100119.53;5093772;28;20130;-73
2023/07/17 00:40:35;;;;;;;10.57;8.95;;;;;;;31.03;50.37;100121.69;5093831;28;20074;-72
2023/07/17 00:43:08;;;;;;;10.90;9.18;;;;;;;31.03;50.34;100129.94;5093876;28;20048;-73
2023/07/17 00:45:40;;;;;;;11.55;9.25;;;;;;;31.00;50.33;100119.41;5093692;28;20048;-73
2023/07/17 00:48:10;;;;;;;;;;;;;;;31.01;50.54;100132.94;5094113;28;20086;-74
2023/07/17 00:50:39;;;;;;;10.95;9.40;;;;;;;31.00;50.45;100131.25;5093467;28;19931;-74
2023/07/17 00:53:09;;;;;;;12.15;9.82;;;;;;;30.99;50.55;100129.56;5093775;28;20071;-72
2023/07/17 00:55:38;;;;;;;14.27;9.63;;;;;;;30.97;50.67;100136.34;5093461;28;20044;-71
2023/07/17 00:58:09;;;;;;;10.90;9.23;;;;;;;30.96;50.70;100134.66;5093182;28;20508;-73
2023/07/17 01:00:40;;;;;;;9.85;8.85;;;;;;;30.94;50.72;100134.91;5093384;28;20048;-72
2023/07/17 01:03:08;;;;;;;10.23;9.23;;;;;;;30.93;50.88;100129.63;5094509;28;20051;-72
2023/07/17 01:05:37;;;;;;;10.23;9.15;;;;;;;30.90;50.91;100136.44;5093541;28;20048;-73
2023/07/17 01:08:06;;;;;;;11.40;9.20;;;;;;;30.91;50.91;100131.78;5093289;28;20417;-72
2023/07/17 01:10:34;;;;;;;11.15;9.23;;;;;;;30.87;51.02;100130.53;5092975;28;20052;-72
2023/07/17 01:13:03;;;;;;;10.20;9.20;;;;;;;30.88;50.94;100129.47;5093096;28;20044;-72
2023/07/17 01:15:32;;;;;;;11.93;9.73;;;;;;;30.85;51.20;100121.66;5093013;28;20170;-74
2023/07/17 01:18:02;;;;;;;10.45;9.43;;;;;;;30.84;50.93;100125.50;5092984;28;20056;-73
2023/07/17 01:20:33;;;;;;;10.88;9.77;;;;;;;30.83;51.01;100119.13;5092921;28;20478;-73
2023/07/17 01:23:04;;;;;;;12.87;10.17;;;;;;;30.83;51.28;100121.06;5092856;28;20040;-73
2023/07/17 01:25:36;;;;;;;10.57;9.18;;;;;;;30.81;51.36;100120.44;5092924;28;20047;-73
2023/07/17 01:28:04;;;;;;;10.90;9.75;;;;;;;30.80;51.18;100107.75;5093042;28;20094;-73
2023/07/17 01:30:32;;;;;;;10.45;9.35;;;;;;;30.80;51.37;100118.75;5093791;28;20473;-74
2023/07/17 01:33:01;;;;;;;11.20;9.35;;;;;;;30.77;51.32;100118.13;5092748;28;20516;-75
2023/07/17 01:35:32;;;;;;;10.73;9.50;;;;;;;30.76;51.46;100108.19;5092636;28;20485;-73
2023/07/17 01:38:04;;;;;;;10.80;9.70;;;;;;;30.76;51.52;100107.34;5092823;28;20461;-73
2023/07/17 01:40:33;;;;;;;10.98;9.88;;;;;;;30.75;51.53;100111.16;5091347;28;20055;-71
2023/07/17 01:43:01;;;;;;;10.85;9.75;;;;;;;30.73;51.66;100103.16;5092522;28;20051;-74
2023/07/17 01:45:29;;;;;;;11.32;9.75;;;;;;;30.71;51.70;100097.03;5092697;28;20080;-72
2023/07/17 01:47:58;;;;;;;10.43;9.30;;;;;;;30.70;51.71;100100.84;5092754;28;20129;-73
2023/07/17 01:50:29;;;;;;;12.10;10.35;;;;;;;30.67;51.61;100098.53;5092503;28;20119;-73
2023/07/17 01:52:58;;;;;;;11.18;9.85;;;;;;;30.67;51.90;100098.53;5092547;28;20125;-74
2023/07/17 01:55:28;;;;;;;12.00;9.70;;;;;;;30.65;51.69;100108.94;5092101;28;20139;-73
2023/07/17 01:57:58;;;;;;;11.10;9.93;;;;;;;30.64;51.62;100115.50;5092373;28;20048;-73
2023/07/17 02:00:27;;;;;;;11.07;9.95;;;;;;;30.61;52.02;100115.94;5092370;28;20123;-73
2023/07/17 02:02:56;;;;;;;12.77;10.70;;;;;;;30.61;51.90;100115.94;5093157;28;20125;-73
2023/07/17 02:05:25;;;;;;;10.48;9.40;;;;;;;30.60;52.12;100122.53;5091921;28;20044;-74
2023/07/17 02:07:53;;;;;;;12.07;9.88;;;;;;;30.56;52.44;100121.28;5092090;28;20074;-73
2023/07/17 02:10:22;;;;;;;10.55;9.52;;;;;;;30.54;52.27;100117.91;5091507;28;20106;-73
2023/07/17 02:12:51;;;;;;;10.63;9.48;;;;;;;30.54;52.27;100131.69;5091072;28;20383;-73
2023/07/17 02:15:20;;;;;;;11.43;10.23;;;;;;;30.52;52.37;100128.31;5091955;28;20052;-74
2023/07/17 02:17:48;;;;;;;11.82;10.63;;;;;;;30.50;52.38;100135.97;5091875;28;20135;-73
2023/07/17 02:20:16;;;;;;;12.75;10.18;;;;;;;30.49;52.25;100134.25;5091882;28;20055;-74
2023/07/17 02:22:46;;;;;;;11.55;10.15;;;;;;;30.47;52.56;100125.38;5092789;28;20056;-73
2023/07/17 02:25:14;;;;;;;11.52;9.90;;;;;;;30.47;52.43;100131.72;5094727;28;20044;-74
2023/07/17 02:27:43;;;;;;;12.05;9.90;;;;;;;30.47;52.52;100144.63;5091774;28;20040;-73
2023/07/17 02:30:13;;;;;;;11.07;9.90;;;;;;;30.45;52.35;100138.53;5091553;28;20043;-74
2023/07/17 02:32:42;;;;;;;11.25;9.80;;;;;;;30.43;52.21;100143.41;5091563;28;20044;-72
2023/07/17 02:35:13;;;;;;;10.95;9.88;;;;;;;30.44;52.38;100150.59;5090188;28;20048;-74
2023/07/17 02:37:41;;;;;;;12.00;9.38;;;;;;;30.41;52.34;100151.91;5091791;28;20087;-74
2023/07/17 02:40:10;;;;;;;11.10;10.00;;;;;;;30.40;52.63;100163.97;5091726;28;20040;-73
2023/07/17 02:42:39;;;;;;;10.45;9.38;;;;;;;30.40;52.51;100168.59;5091825;28;20101;-74
2023/07/17 02:45:10;;;;;;;10.70;9.60;;;;;;;30.38;52.38;100170.75;5091574;28;20052;-73
2023/07/17 02:47:40;;;;;;;11.75;9.68;;;;;;;30.37;52.49;100175.41;5091175;28;20055;-72
2023/07/17 02:50:12;;;;;;;11.30;9.68;;;;;;;30.36;52.66;100175.63;5091326;28;20572;-72
2023/07/17 02:52:41;;;;;;;10.98;9.88;;;;;;;30.34;52.42;100184.13;5091648;28;20135;-72
2023/07/17 02:55:10;;;;;;;10.30;9.30;;;;;;;30.34;52.71;100194.28;5091559;28;20056;-72
2023/07/17 02:57:38;;;;;;;11.90;9.95;;;;;;;30.33;52.42;100195.34;5091423;28;20044;-73
2023/07/17 03:00:10;;;;;;;11.00;9.90;;;;;;;30.31;52.57;100192.81;5091162;28;20405;-70
2023/07/17 03:02:46;;;;;;;10.57;9.48;;;;;;;30.30;52.66;100195.78;5091289;28;20055;-72
2023/07/17 03:05:18;;;;;;;10.65;9.55;;;;;;;30.29;52.67;100189.44;5091582;28;20451;-72
2023/07/17 03:07:47;;;;;;;13.13;10.32;;;;;;;30.27;52.85;100177.81;5091307;28;20044;-72
2023/07/17 03:10:15;;;;;;;11.35;9.75;;;;;;;30.28;52.63;100187.75;5090897;28;20146;-72
2023/07/17 03:12:44;;;;;;;10.85;9.77;;;;;;;30.27;52.70;100185.22;5091031;28;20493;-73
2023/07/17 03:15:12;;;;;;;11.52;10.25;;;;;;;30.26;52.71;100186.28;5091223;28;20052;-72
2023/07/17 03:17:41;;;;;;;10.90;9.80;;;;;;;30.24;52.91;100186.53;5091248;28;20239;-73
2023/07/17 03:20:11;;;;;;;10.10;8.93;;;;;;;30.23;52.79;100175.75;5091159;28;20405;-73
2023/07/17 03:22:39;;;;;;;10.98;9.52;;;;;;;30.21;52.94;100178.72;5094931;28;20044;-72
2023/07/17 03:25:08;;;;;;;10.57;9.48;;;;;;;30.21;52.96;100173.22;5096423;28;20417;-74
2023/07/17 03:27:37;;;;;;;10.80;9.70;;;;;;;30.18;53.23;100171.72;5093891;28;20054;-70
2023/07/17 03:30:08;;;;;;;12.35;10.13;;;;;;;30.17;53.10;100170.06;5095278;28;20143;-73
2023/07/17 03:32:36;;;;;;;10.20;9.05;;;;;;;30.16;53.16;100164.78;5095204;28;20044;-73
2023/07/17 03:35:09;;;;;;;11.98;10.32;;;;;;;30.16;52.98;100178.53;5095047;28;20051;-74
2023/07/17 03:37:38;;;;;;;11.43;10.20;;;;;;;30.12;53.29;100178.16;5094924;28;20054;-73
2023/07/17 03:40:10;;;;;;;10.75;9.57;;;;;;;30.13;53.32;100184.50;5093432;28;20387;-73
2023/07/17 03:42:38;;;;;;;12.27;9.68;;;;;;;30.12;53.36;100183.66;5093403;28;20044;-70
2023/07/17 03:45:07;;;;;;;12.02;10.05;;;;;;;30.12;53.48;100177.31;5094947;28;20440;-74
2023/07/17 03:47:35;;;;;;;11.88;9.70;;;;;;;30.10;53.36;100174.75;5094560;28;20047;-72
2023/07/17 03:50:05;;;;;;;11.88;10.60;;;;;;;30.07;53.39;100164.19;5094614;28;20058;-73
2023/07/17 03:52:35;;;;;;;10.98;9.88;;;;;;;30.09;53.43;100172.22;5094442;28;20051;-71
2023/07/17 03:55:03;;;;;;;11.18;9.48;;;;;;;30.07;53.66;100172.44;5094433;28;20501;-72
2023/07/17 03:57:32;;;;;;;11.35;9.98;;;;;;;30.07;53.55;100177.94;5094893;28;20079;-72
2023/07/17 04:00:00;;;;;;;11.57;10.13;;;;;;;30.04;53.59;100167.38;5094646;28;20044;-72
2023/07/17 04:02:31;;;;;;;13.45;9.20;;;;;;;30.05;53.46;100177.31;5094597;28;20413;-72
2023/07/17 04:05:00;;;;;;;11.10;9.90;;;;;;;30.02;53.75;100176.91;5094522;28;20127;-71
2023/07/17 04:07:28;;;;;;;11.13;10.02;;;;;;;30.03;53.67;100184.09;5096003;28;20052;-71
2023/07/17 04:09:58;;;;;;;11.68;10.35;;;;;;;30.03;53.81;100187.69;5094151;28;20070;-73
2023/07/17 04:12:29;;;;;;;12.30;10.32;;;;;;;30.02;53.45;100183.25;5094454;28;20044;-72
2023/07/17 04:14:58;;;;;;;14.00;9.93;;;;;;;30.01;53.46;100181.53;5094196;28;20050;-72
2023/07/17 04:17:26;;;;;;;13.23;10.52;;;;;;;30.01;53.62;100181.53;5094044;28;20085;-73
2023/07/17 04:19:54;;;;;;;10.88;9.75;;;;;;;30.00;53.49;100179.84;5094378;28;20080;-72
2023/07/17 04:22:23;;;;;;;11.23;10.07;;;;;;;30.00;53.58;100182.59;5094007;28;20048;-73
2023/07/17 04:24:54;;;;;;;11.60;9.98;;;;;;;29.97;53.46;100180.31;5094033;28;20455;-72
2023/07/17 04:27:24;;;;;;;11.10;10.00;;;;;;;29.98;53.48;100186.66;5093171;28;20052;-72
2023/07/17 04:29:52;;;;;;;11.50;10.10;;;;;;;29.96;53.26;100184.13;5093933;28;20055;-72
2023/07/17 04:32:21;;;;;;;10.82;9.73;;;;;;;29.97;53.69;100184.97;5093331;28;20048;-70
2023/07/17 04:34:49;;;;;;;10.48;9.48;;;;;;;29.96;53.56;100192.38;5093993;28;20080;-73
2023/07/17 04:37:19;;;;;;;11.18;10.07;;;;;;;29.93;53.57;100193.66;5093756;28;20108;-71
2023/07/17 04:39:47;;;;;;;10.93;9.70;;;;;;;29.93;53.48;100193.66;5093877;28;20044;-73
2023/07/17 04:42:18;;;;;;;11.23;9.77;;;;;;;29.93;53.62;100192.81;5093769;28;20052;-70
2023/07/17 04:44:48;;;;;;;10.68;9.57;;;;;;;29.93;53.32;100196.41;5093444;28;20107;-74
2023/07/17 04:47:16;;;;;;;11.00;9.90;;;;;;;29.93;53.47;100201.06;5093538;28;20043;-74
2023/07/17 04:49:44;;;;;;;11.10;10.00;;;;;;;29.92;53.44;100193.91;5093393;28;20048;-73
2023/07/17 04:52:15;;;;;;;12.07;9.63;;;;;;;29.91;53.49;100198.50;5092025;28;20058;-73
2023/07/17 04:54:45;;;;;;;13.93;10.15;;;;;;;29.90;53.46;100196.00;5093327;28;20052;-73
2023/07/17 04:57:13;;;;;;;11.55;9.50;;;;;;;29.89;53.50;100199.81;5093191;28;20048;-73
2023/07/17 04:59:41;;;;;;;11.38;9.80;;;;;;;29.90;53.51;100190.50;5093193;28;20048;-72
2023/07/17 05:02:10;;;;;;;11.75;10.05;;;;;;;29.89;53.63;100199.81;5093306;28;20054;-72
2023/07/17 05:04:40;;;;;;;11.25;9.90;;;;;;;29.89;53.27;100199.81;5092963;28;20131;-75
2023/07/17 05:07:08;;;;;;;11.07;9.88;;;;;;;29.89;53.45;100199.81;5093091;28;20454;-73
2023/07/17 05:09:36;;;;;;;12.52;10.10;;;;;;;29.88;53.55;100195.38;5092759;28;20131;-73
2023/07/17 05:12:06;;;;;;;12.95;10.13;;;;;;;29.88;53.42;100192.63;5092272;28;20055;-74
2023/07/17 05:14:34;;;;;;;10.65;9.55;;;;;;;29.88;53.60;100195.38;5083773;28;20485;-73
2023/07/17 05:17:02;;;;;;;11.38;10.05;;;;;;;29.87;53.42;100193.69;5092763;28;20070;-73
2023/07/17 05:19:32;;;;;;;12.00;10.23;;;;;;;29.87;53.44;100194.53;5091658;28;20052;-73
2023/07/17 05:22:08;;;;;;;11.88;9.48;;;;;;;29.87;53.26;100189.03;5092586;28;20134;-73
2023/07/17 05:24:37;;;;;;;11.32;9.60;;;;;;;29.86;53.24;100183.75;5074788;28;20048;-73
2023/07/17 05:27:08;;;;;;;10.93;9.60;;;;;;;29.86;53.41;100187.34;5092811;28;20055;-73
2023/07/17 05:29:36;;;;;;;11.50;10.30;;;;;;;29.85;53.37;100177.41;5092717;28;20086;-73
2023/07/17 05:32:05;;;;;;;10.50;9.43;;;;;;;29.86;53.23;100183.75;5092744;28;20125;-74
2023/07/17 05:34:35;;;;;;;11.65;9.60;;;;;;;29.86;53.30;100189.25;5092426;28;20044;-73
2023/07/17 05:37:03;;;;;;;10.95;9.80;;;;;;;29.84;53.49;100191.41;5092388;28;20059;-71
2023/07/17 05:39:31;;;;;;;12.02;9.95;;;;;;;29.84;53.31;100192.22;5092467;28;20048;-67
2023/07/17 05:41:59;;;;;;;10.60;9.40;;;;;;;29.85;53.34;100187.56;5092681;28;20180;-69
2023/07/17 05:44:28;;;;;;;12.30;10.23;;;;;;;29.84;53.40;100192.22;5073675;28;20138;-70
2023/07/17 05:46:56;;;;;;;12.60;10.00;;;;;;;29.85;53.24;100191.16;5092570;28;20059;-69
2023/07/17 05:49:24;;;;;;;12.13;10.35;;;;;;;29.85;53.28;100187.56;5092305;28;20040;-69
2023/07/17 05:51:54;;;;;;;10.60;9.50;;;;;;;29.85;53.49;100190.31;5092279;28;20087;-69
2023/07/17 05:54:23;;;;;;;11.70;9.75;;;;;;;29.85;53.45;100193.91;5092443;28;20458;-67
2023/07/17 05:56:51;;;;;;;11.77;10.18;;;;;;;29.85;53.41;100190.31;5092128;28;20052;-69
2023/07/17 05:59:23;;;;;;;11.73;9.93;;;;;;;29.86;53.11;100183.75;5092239;28;20048;-69
2023/07/17 06:01:52;;;;;;;12.07;9.25;;;;;;;29.85;53.09;100190.31;5092031;28;20482;-68
2023/07/17 06:04:21;;;;;;;11.68;9.27;;;;;;;29.86;53.05;100189.25;5091831;28;20040;-73
2023/07/17 06:06:54;;;;;;;11.50;9.38;;;;;;;29.86;53.23;100194.75;5089622;28;20507;-72
2023/07/17 06:09:22;;;;;;;11.80;9.93;;;;;;;29.86;53.40;100194.75;5090848;28;20048;-71
2023/07/17 06:11:50;;;;;;;13.18;9.82;;;;;;;29.87;53.34;100191.78;5073828;28;20048;-75
2023/07/17 06:14:19;;;;;;;10.43;9.32;;;;;;;29.87;53.38;100193.69;5092060;28;20109;-72
2023/07/17 06:16:49;;;;;;;11.32;9.07;;;;;;;29.86;53.35;100192.84;5091349;28;20140;-71
2023/07/17 06:19:20;;;;;;;11.82;9.20;;;;;;;29.88;53.35;100198.97;5090646;28;20044;-73
2023/07/17 06:21:48;;;;;;;11.48;9.45;;;;;;;29.88;53.23;100192.63;5073831;28;20044;-72
2023/07/17 06:24:18;;;;;;;13.75;9.90;;;;;;;29.89;53.14;100191.56;5091150;28;20044;-73
2023/07/17 06:26:47;;;;;;;10.85;9.65;;;;;;;29.89;53.54;100188.81;5090332;28;20052;-73
2023/07/17 06:29:18;;;;;;;11.13;9.18;;;;;;;29.90;53.44;100196.00;5091493;28;20048;-72
2023/07/17 06:31:46;;;;;;;10.70;9.00;;;;;;;29.89;53.41;100189.66;5073657;28;20066;-73
2023/07/17 06:34:15;;;;;;;11.32;8.95;;;;;;;29.89;53.33;100194.31;5091626;28;20124;-72
2023/07/17 06:36:43;;;;;;;10.35;8.38;;;;;;;29.91;52.93;100197.69;5091592;28;20044;-72
2023/07/17 06:39:14;;;;;;;11.23;9.18;;;;;;;29.91;53.17;100197.69;5091574;28;20052;-73
2023/07/17 06:41:45;;;;;;;;;;;;;;;29.90;53.13;100196.84;5091851;28;20473;-72
2023/07/17 06:44:14;;;;;;;10.18;9.07;;;;;;;29.90;52.82;100187.75;5091487;28;19923;-73
2023/07/17 06:46:43;;;;;;;10.15;9.00;;;;;;;29.92;52.93;100193.91;5091383;28;20569;-73
2023/07/17 06:49:11;;;;;;;10.95;9.20;;;;;;;29.92;53.06;100191.16;5091415;28;20135;-72
2023/07/17 06:51:39;;;;;;;10.73;9.10;;;;;;;29.91;52.58;100190.28;5073502;28;20074;-73
2023/07/17 06:54:08;;;;;;;10.65;9.13;;;;;;;29.94;52.54;100186.25;5091232;28;20125;-73
2023/07/17 06:56:36;;;;;;;9.77;8.50;;;;;;;29.95;52.69;100192.59;5091021;28;20043;-72
2023/07/17 06:59:08;;;;;;;15.48;9.02;;;;;;;29.94;52.70;100186.25;5091319;28;20577;-72
2023/07/17 07:01:36;;;;;;;9.43;8.45;;;;;;;29.94;52.58;100186.25;5091267;28;20131;-73
2023/07/17 07:04:05;;;;;;;12.63;8.70;;;;;;;29.94;52.18;100180.75;5091297;28;20071;-73
2023/07/17 07:06:33;;;;;;;11.50;8.80;;;;;;;29.97;52.47;100182.22;5091133;28;20610;-72
2023/07/17 07:09:02;;;;;;;9.45;8.35;;;;;;;29.96;52.34;100178.63;5091023;28;20051;-73
2023/07/17 07:11:32;;;;;;;9.05;8.05;;;;;;;29.96;52.30;100173.13;5091664;28;20055;-72
2023/07/17 07:14:03;;;;;;;10.38;8.30;;;;;;;29.97;52.30;100174.81;5073964;28;20127;-71
2023/07/17 07:16:32;;;;;;;9.23;7.80;;;;;;;29.98;52.13;100182.00;5091146;28;20089;-72
2023/07/17 07:19:02;;;;;;;8.95;7.97;;;;;;;29.98;52.17;100182.00;5090961;28;20087;-71
2023/07/17 07:21:31;;;;;;;10.20;8.45;;;;;;;29.99;52.41;100189.19;5090800;28;20079;-71
2023/07/17 07:23:59;;;;;;;10.35;8.43;;;;;;;30.00;52.25;100179.00;5090763;28;20052;-71
2023/07/17 07:26:27;;;;;;;10.13;8.48;;;;;;;30.01;52.31;100183.44;5090774;28;20375;-72
2023/07/17 07:28:56;;;;;;;9.90;8.23;;;;;;;30.01;51.94;100181.53;5090964;28;20105;-72
2023/07/17 07:31:25;;;;;;;10.10;8.32;;;;;;;30.01;52.00;100178.78;5091354;28;20063;-72
2023/07/17 07:33:54;;;;;;;9.13;8.10;;;;;;;30.02;52.14;100182.41;5091371;28;20079;-71
2023/07/17 07:36:23;;;;;;;10.13;7.55;;;;;;;30.02;52.22;100177.75;5091054;28;20058;-72
2023/07/17 07:38:51;;;;;;;10.07;8.20;;;;;;;30.04;52.18;100178.38;5090561;28;20097;-72
2023/07/17 07:41:19;;;;;;;10.90;8.20;;;;;;;30.04;51.97;100170.13;5073056;28;20490;-72
2023/07/17 07:43:48;;;;;;;8.95;8.05;;;;;;;30.05;52.06;100171.81;5091182;28;20070;-72
2023/07/17 07:46:16;;;;;;;9.30;8.07;;;;;;;30.05;52.13;100171.81;5091403;28;20048;-72
2023/07/17 07:48:45;;;;;;;8.85;7.72;;;;;;;30.06;51.89;100169.91;5090904;28;20409;-71
2023/07/17 07:51:15;;;;;;;9.80;7.68;;;;;;;30.06;51.87;100173.47;5091158;28;20040;-72
2023/07/17 07:53:44;;;;;;;9.25;8.10;;;;;;;30.07;52.00;100175.19;5090820;28;20055;-72
2023/07/17 07:56:12;;;;;;;8.45;7.38;;;;;;;30.07;51.91;100175.19;5092488;28;20048;-72
2023/07/17 07:58:40;;;;;;;9.52;7.68;;;;;;;30.08;52.07;100179.63;5073237;28;20055;-72
2023/07/17 08:01:10;;;;;;;9.45;7.68;;;;;;;30.09;51.92;100178.56;5073308;28;20044;-72
2023/07/17 08:03:40;;;;;;;9.50;7.90;;;;;;;30.10;51.82;100182.16;5090660;28;20080;-72
2023/07/17 08:06:09;;;;;;;11.60;8.02;;;;;;;30.10;51.67;100180.25;5090950;28;20041;-72
2023/07/17 08:08:39;;;;;;;8.65;7.78;;;;;;;30.11;51.85;100172.84;5094125;28;20055;-72
2023/07/17 08:11:08;;;;;;;9.32;7.88;;;;;;;30.12;51.74;100183.66;5094515;28;20056;-72
2023/07/17 08:13:37;;;;;;;8.40;7.15;;;;;;;30.12;51.94;100183.66;5094321;28;20401;-72
2023/07/17 08:16:06;;;;;;;9.68;7.63;;;;;;;30.12;51.83;100180.91;5094841;28;20044;-72
2023/07/17 08:18:35;;;;;;;10.75;7.60;;;;;;;30.14;51.59;100175.16;5094250;28;20052;-71
2023/07/17 08:21:04;;;;;;;8.15;7.07;;;;;;;30.14;51.54;100173.25;5094329;28;20044;-72
2023/07/17 08:23:33;;;;;;;9.38;7.40;;;;;;;30.14;51.62;100176.00;5094489;28;20080;-72
2023/07/17 08:26:04;;;;;;;8.27;7.35;;;;;;;30.15;51.34;100172.19;5093826;28;20473;-72
2023/07/17 08:28:35;;;;;;;8.93;7.35;;;;;;;30.17;51.49;100181.06;5093552;28;20146;-72
2023/07/17 08:31:03;;;;;;;7.72;6.80;;;;;;;30.16;51.49;100173.88;5094079;28;20145;-71
2023/07/17 08:33:35;;;;;;;10.57;7.30;;;;;;;30.18;51.43;100173.66;5093723;28;20084;-73
2023/07/17 08:36:04;;;;;;;8.05;6.63;;;;;;;30.18;51.22;100170.91;5093765;28;20199;-72
2023/07/17 08:38:32;;;;;;;9.25;7.22;;;;;;;30.19;51.34;100178.91;5093512;28;20048;-72
2023/07/17 08:41:04;;;;;;;9.93;7.45;;;;;;;30.20;51.32;100177.00;5093412;28;20051;-74
2023/07/17 08:43:36;;;;;;;8.30;6.90;;;;;;;30.22;51.42;100180.41;5093405;28;20051;-73
2023/07/17 08:46:06;;;;;;;10.60;7.35;;;;;;;30.23;51.44;100184.00;5093588;28;20110;-73
2023/07/17 08:48:43;;;;;;;8.43;6.93;;;;;;;30.23;51.24;100178.50;5093386;28;20085;-73
2023/07/17 08:51:12;;;;;;;8.45;7.00;;;;;;;30.22;51.31;100179.56;5093531;28;20054;-72
2023/07/17 08:53:44;;;;;;;8.32;7.28;;;;;;;30.26;51.03;100180.78;5093145;28;20051;-73
2023/07/17 08:56:12;;;;;;;10.05;7.38;;;;;;;30.27;51.06;100190.72;5092568;28;20048;-71
2023/07/17 08:58:45;;;;;;;8.75;7.30;;;;;;;30.27;51.06;100179.72;5093387;28;20055;-72
2023/07/17 09:01:13;;;;;;;10.68;7.80;;;;;;;30.29;51.26;100183.09;5093160;28;20493;-73
2023/07/17 09:03:42;;;;;;;10.02;7.57;;;;;;;30.29;50.92;100172.09;5092968;28;20094;-72
2023/07/17 09:06:14;;;;;;;8.68;7.47;;;;;;;30.31;50.78;100186.50;5092949;28;20044;-73
2023/07/17 09:08:44;;;;;;;8.55;6.80;;;;;;;30.31;50.92;100176.31;5092958;28;20135;-73
2023/07/17 09:11:15;;;;;;;9.02;7.68;;;;;;;30.34;50.98;100183.28;5093054;28;20485;-73
2023/07/17 09:13:47;;;;;;;8.85;7.90;;;;;;;30.34;50.89;100186.03;5092910;28;20040;-72
2023/07/17 09:16:20;;;;;;;9.52;7.32;;;;;;;30.35;50.95;100180.31;5092934;28;20113;-72
2023/07/17 09:18:52;;;;;;;8.93;7.30;;;;;;;30.35;50.88;100172.03;5074445;28;20048;-71
2023/07/17 09:21:22;;;;;;;9.55;7.40;;;;;;;30.38;50.96;100173.50;5092950;28;20124;-73
2023/07/17 09:23:53;;;;;;;9.30;7.75;;;;;;;30.38;50.92;100171.59;5092737;28;20056;-73
2023/07/17 09:26:24;;;;;;;9.95;7.85;;;;;;;30.39;50.61;100167.78;5074897;28;20105;-73
2023/07/17 09:28:59;;;;;;;9.18;7.93;;;;;;;30.41;50.81;100164.81;5092736;28;20127;-73
2023/07/17 09:31:32;;;;;;;8.90;7.70;;;;;;;30.43;50.73;100174.53;5092969;28;20132;-73
2023/07/17 09:34:05;;;;;;;9.25;7.45;;;;;;;30.45;50.61;100168.78;5092834;28;20098;-73
2023/07/17 09:36:33;;;;;;;9.32;7.82;;;;;;;30.47;50.47;100169.41;5092484;28;20447;-72
2023/07/17 09:39:04;;;;;;;8.57;7.32;;;;;;;30.47;50.59;100156.50;5092600;28;20102;-73
2023/07/17 09:41:33;;;;;;;9.13;8.00;;;;;;;30.49;50.54;100161.75;5092571;28;20044;-72
2023/07/17 09:44:04;;;;;;;8.63;7.78;;;;;;;30.51;50.36;100162.41;5092318;28;20047;-73
2023/07/17 09:46:34;;;;;;;10.73;8.43;;;;;;;30.53;50.21;100156.66;5092475;28;20485;-73
2023/07/17 09:49:04;;;;;;;11.35;8.23;;;;;;;30.56;50.33;100157.06;5074743;28;20059;-73
2023/07/17 09:51:33;;;;;;;10.63;8.43;;;;;;;30.58;50.03;100165.91;5092407;28;20055;-72
2023/07/17 09:54:02;;;;;;;9.63;7.68;;;;;;;30.60;49.97;100157.47;5092269;28;20125;-74
2023/07/17 09:56:32;;;;;;;9.60;8.25;;;;;;;30.61;49.95;100160.00;5092027;28;20378;-73
2023/07/17 09:59:12;;;;;;;10.43;8.00;;;;;;;30.61;49.95;100160.00;5092176;28;20470;-73
2023/07/17 10:01:44;;;;;;;8.77;7.25;;;;;;;30.64;49.92;100159.56;5092225;28;20581;-72
2023/07/17 10:04:17;;;;;;;9.53;8.13;;;;;;;30.65;49.93;100160.41;5091924;28;20079;-73
2023/07/17 10:06:48;;;;;;;9.45;8.45;;;;;;;30.67;49.97;100153.59;5092072;28;20543;-72
2023/07/17 10:09:20;;;;;;;11.27;8.60;;;;;;;30.68;49.83;100149.75;5091915;28;20056;-73
2023/07/17 10:11:49;;;;;;;8.95;7.93;;;;;;;30.71;50.01;100156.75;5092301;28;20051;-73
2023/07/17 10:14:22;;;;;;;9.18;7.70;;;;;;;30.72;49.90;100151.03;5091964;28;20048;-72
2023/07/17 10:16:52;;;;;;;10.23;8.10;;;;;;;30.72;49.98;100148.25;5091713;28;20385;-73
2023/07/17 10:19:21;;;;;;;10.05;8.95;;;;;;;30.76;49.85;100151.41;5091513;28;20052;-73
2023/07/17 10:21:54;;;;;;;11.02;8.80;;;;;;;30.80;49.58;100140.78;5091907;28;20048;-72
2023/07/17 10:24:24;;;;;;;12.82;9.05;;;;;;;30.82;49.53;100141.41;5092016;28;20135;-73
2023/07/17 10:26:52;;;;;;;12.70;8.68;;;;;;;30.84;49.49;100136.50;5091878;28;20052;-72
2023/07/17 10:29:32;;;;;;;13.20;9.38;;;;;;;30.87;49.14;100133.28;5091273;28;20055;-72
2023/07/17 10:32:09;;;;;;;9.77;8.77;;;;;;;30.91;48.87;100123.50;5073969;28;20036;-74
2023/07/17 10:34:58;;;;;;;11.57;8.77;;;;;;;30.93;48.87;100124.97;5091816;28;20044;-72
2023/07/17 10:37:47;;;;;;;13.57;8.90;;;;;;;30.97;48.74;100122.59;5087026;28;20486;-72
2023/07/17 10:40:30;;;;;;;9.25;8.13;;;;;;;30.99;48.66;100118.56;5086929;28;20052;-73
2023/07/17 10:43:11;;;;;;;10.35;8.40;;;;;;;31.00;48.45;100109.22;5089907;28;20093;-73
2023/07/17 10:45:41;;;;;;;10.52;8.98;;;;;;;31.00;48.65;100109.22;5091517;28;20058;-73
2023/07/17 10:48:10;;;;;;;10.15;8.88;;;;;;;31.04;48.69;100099.41;5091587;28;20044;-73
2023/07/17 10:50:40;;;;;;;11.05;8.80;;;;;;;31.07;48.68;100103.59;5091216;28;20098;-73
2023/07/17 10:53:09;;;;;;;9.13;8.15;;;;;;;31.08;48.66;100105.31;5091624;28;20050;-74
2023/07/17 10:55:37;;;;;;;9.40;8.40;;;;;;;31.11;48.72;100098.50;5091209;28;20485;-73
2023/07/17 10:58:06;;;;;;;11.63;8.90;;;;;;;31.12;48.75;100095.50;5091401;28;20048;-73
2023/07/17 11:00:34;;;;;;;10.32;8.07;;;;;;;31.13;48.78;100096.34;5091052;28;20060;-73
2023/07/17 11:03:04;;;;;;;10.88;9.25;;;;;;;31.15;48.82;100095.03;5091178;28;20105;-73
2023/07/17 11:05:37;;;;;;;10.68;9.57;;;;;;;31.18;48.82;100096.53;5091293;28;20123;-73
2023/07/17 11:08:06;;;;;;;9.98;8.80;;;;;;;31.20;48.68;100092.47;5091276;28;20040;-73
2023/07/17 11:10:36;;;;;;;11.18;8.45;;;;;;;31.21;48.77;100088.66;5091030;28;20058;-73
2023/07/17 11:13:04;;;;;;;9.88;8.88;;;;;;;31.25;48.83;100083.50;5091295;28;20138;-73
2023/07/17 11:15:35;;;;;;;9.50;8.35;;;;;;;31.26;48.39;100074.16;5091193;28;20040;-73
2023/07/17 11:18:08;;;;;;;9.52;8.50;;;;;;;31.27;48.60;100076.72;5091043;28;20090;-73
2023/07/17 11:20:37;;;;;;;10.23;8.50;;;;;;;31.31;48.63;100080.69;5091122;28;20050;-73
2023/07/17 11:23:11;;;;;;;9.23;8.23;;;;;;;31.34;48.67;100076.59;5091247;28;20044;-73
2023/07/17 11:25:42;;;;;;;9.88;8.98;;;;;;;31.35;48.68;100075.53;5091085;28;20506;-73
2023/07/17 11:28:11;;;;;;;9.50;8.05;;;;;;;31.41;48.58;100071.88;5090948;28;20539;-73
2023/07/17 11:30:39;;;;;;;10.90;9.32;;;;;;;31.45;48.53;100070.31;5091412;28;20051;-74